createdAt,value
2022-12-06T00:01:13.886Z,5.72
2022-12-06T00:03:43.601Z,6.45
2022-12-06T00:06:12.880Z,6.40
2022-12-06T00:08:41.512Z,7.68
2022-12-06T00:11:11.301Z,5.30
2022-12-06T00:13:41.421Z,7.55
2022-12-06T00:16:11.889Z,7.30
2022-12-06T00:18:41.075Z,6.38
2022-12-06T00:21:10.934Z,6.80
2022-12-06T00:23:40.080Z,7.95
2022-12-06T00:26:09.263Z,6.75
2022-12-06T00:28:38.881Z,6.03
2022-12-06T00:31:10.674Z,8.40
2022-12-06T00:33:39.000Z,7.32
2022-12-06T00:36:09.117Z,8.32
2022-12-06T00:38:37.516Z,6.57
2022-12-06T00:41:07.178Z,8.60
2022-12-06T00:43:36.054Z,7.30
2022-12-06T00:46:05.069Z,7.97
2022-12-06T00:48:34.523Z,8.00
2022-12-06T00:51:02.573Z,11.57
2022-12-06T00:53:31.187Z,10.55
2022-12-06T00:55:59.100Z,7.88
2022-12-06T00:58:27.539Z,9.27
2022-12-06T01:00:55.640Z,8.88
2022-12-06T01:03:24.211Z,7.00
2022-12-06T01:05:53.518Z,7.32
2022-12-06T01:08:21.583Z,7.30
2022-12-06T01:10:54.253Z,6.90
2022-12-06T01:13:22.835Z,6.95
2022-12-06T01:15:50.978Z,7.22
2022-12-06T01:18:18.925Z,6.25
2022-12-06T01:20:47.354Z,7.40
2022-12-06T01:23:17.089Z,6.82
2022-12-06T01:25:52.165Z,7.78
2022-12-06T01:28:20.155Z,9.10
2022-12-06T01:30:48.141Z,7.10
2022-12-06T01:33:16.313Z,7.25
2022-12-06T01:35:44.977Z,7.25
2022-12-06T01:38:13.494Z,7.93
2022-12-06T01:40:45.428Z,8.32
2022-12-06T01:43:34.270Z,8.30
2022-12-06T01:46:06.661Z,9.75
2022-12-06T01:48:35.790Z,7.35
2022-12-06T01:51:04.564Z,9.55
2022-12-06T01:53:33.302Z,10.23
2022-12-06T01:56:02.989Z,8.85
2022-12-06T01:58:36.728Z,10.38
2022-12-06T02:01:05.245Z,7.60
2022-12-06T02:03:34.696Z,12.55
2022-12-06T02:06:04.450Z,8.73
2022-12-06T02:08:34.164Z,7.40
2022-12-06T02:11:05.229Z,12.07
2022-12-06T02:13:36.805Z,10.38
2022-12-06T02:16:17.054Z,10.02
2022-12-06T02:18:50.981Z,7.68
2022-12-06T02:21:28.728Z,7.95
2022-12-06T02:24:21.305Z,7.75
2022-12-06T02:26:53.412Z,9.05
2022-12-06T02:30:08.424Z,9.82
2022-12-06T02:32:49.219Z,7.88
2022-12-06T02:35:28.179Z,9.13
2022-12-06T02:38:06.642Z,8.05
2022-12-06T02:40:40.877Z,11.07
2022-12-06T02:43:13.908Z,8.82
2022-12-06T02:45:46.948Z,9.15
2022-12-06T02:48:18.775Z,10.93
2022-12-06T02:50:49.536Z,10.70
2022-12-06T02:53:20.099Z,9.63
2022-12-06T02:55:48.859Z,12.00
2022-12-06T02:58:16.901Z,10.38
2022-12-06T03:00:46.555Z,9.77
2022-12-06T03:03:47.752Z,11.18
2022-12-06T03:06:40.697Z,13.18
2022-12-06T03:11:52.110Z,11.77
2022-12-06T03:14:23.107Z,12.27
2022-12-06T03:16:57.455Z,10.35
2022-12-06T03:19:30.285Z,10.65
2022-12-06T03:22:03.475Z,12.55
2022-12-06T03:24:34.833Z,10.05
2022-12-06T03:27:07.152Z,10.82
2022-12-06T03:29:38.066Z,11.05
2022-12-06T03:32:08.578Z,11.52
2022-12-06T03:34:40.157Z,11.25
2022-12-06T03:37:13.493Z,13.00
2022-12-06T03:39:47.736Z,11.15
2022-12-06T03:42:16.209Z,13.23
2022-12-06T03:44:44.134Z,10.23
2022-12-06T03:47:16.276Z,10.50
2022-12-06T03:49:49.464Z,13.35
2022-12-06T03:52:17.539Z,12.20
2022-12-06T03:54:45.906Z,11.80
2022-12-06T03:57:14.488Z,14.90
2022-12-06T03:59:42.512Z,12.52
2022-12-06T04:02:10.929Z,11.93
2022-12-06T04:04:39.102Z,12.65
2022-12-06T04:07:08.428Z,12.65
2022-12-06T04:09:56.355Z,11.02
2022-12-06T04:12:42.641Z,12.35
2022-12-06T04:15:11.975Z,10.18
2022-12-06T04:17:58.558Z,13.63
2022-12-06T04:20:27.959Z,13.27
2022-12-06T04:23:05.224Z,13.98
2022-12-06T04:25:34.274Z,16.00
2022-12-06T04:28:20.491Z,19.80
2022-12-06T04:31:05.732Z,11.18
2022-12-06T04:33:51.646Z,12.90
2022-12-06T04:36:36.866Z,14.93
2022-12-06T04:39:06.697Z,19.48
2022-12-06T04:41:52.355Z,30.10
2022-12-06T04:44:20.406Z,18.50
2022-12-06T04:46:48.701Z,15.82
2022-12-06T04:49:16.812Z,14.73
2022-12-06T04:51:44.723Z,15.48
2022-12-06T04:54:13.993Z,16.73
2022-12-06T04:56:42.151Z,16.33
2022-12-06T04:59:10.206Z,17.33
2022-12-06T05:01:38.265Z,15.90
2022-12-06T05:04:06.618Z,15.68
2022-12-06T05:06:34.879Z,18.00
2022-12-06T05:09:03.187Z,16.50
2022-12-06T05:11:32.829Z,16.20
2022-12-06T05:14:01.492Z,19.00
2022-12-06T05:16:29.707Z,14.60
2022-12-06T05:18:57.992Z,17.35
2022-12-06T05:21:26.871Z,15.85
2022-12-06T05:23:55.542Z,16.52
2022-12-06T05:26:25.620Z,17.38
2022-12-06T05:28:56.621Z,16.75
2022-12-06T05:31:25.516Z,15.63
2022-12-06T05:33:54.310Z,16.67
2022-12-06T05:36:24.952Z,18.73
2022-12-06T05:38:54.035Z,17.88
2022-12-06T05:41:23.379Z,15.27
2022-12-06T05:43:51.298Z,15.43
2022-12-06T05:46:20.663Z,14.95
2022-12-06T05:48:48.717Z,16.58
2022-12-06T05:51:16.702Z,17.42
2022-12-06T05:53:44.748Z,16.08
2022-12-06T05:56:13.751Z,18.85
2022-12-06T05:58:41.766Z,18.73
2022-12-06T06:01:10.477Z,19.50
2022-12-06T06:03:45.479Z,18.55
2022-12-06T06:06:15.434Z,21.55
2022-12-06T06:08:43.896Z,23.63
2022-12-06T06:11:11.902Z,17.13
2022-12-06T06:13:39.864Z,15.23
2022-12-06T06:16:08.384Z,17.92
2022-12-06T06:18:36.584Z,15.82
2022-12-06T06:21:06.197Z,17.02
2022-12-06T06:23:34.723Z,18.48
2022-12-06T06:26:07.995Z,17.75
2022-12-06T06:28:36.161Z,14.75
2022-12-06T06:31:04.647Z,15.95
2022-12-06T06:33:32.912Z,17.92
2022-12-06T06:36:01.301Z,22.48
2022-12-06T06:38:30.653Z,16.77
2022-12-06T06:41:02.109Z,15.45
2022-12-06T06:43:30.371Z,16.92
2022-12-06T06:46:00.105Z,17.45
2022-12-06T06:48:30.185Z,16.45
2022-12-06T06:51:02.799Z,16.35
2022-12-06T06:56:00.371Z,16.85
2022-12-06T06:58:28.454Z,18.27
2022-12-06T07:00:58.317Z,15.57
2022-12-06T07:03:26.868Z,15.70
2022-12-06T07:05:55.955Z,16.70
2022-12-06T07:08:24.477Z,17.58
2022-12-06T07:10:54.305Z,17.00
2022-12-06T07:13:24.280Z,13.73
2022-12-06T07:15:52.683Z,14.23
2022-12-06T07:18:21.496Z,15.40
2022-12-06T07:20:50.336Z,15.68
2022-12-06T07:23:18.263Z,15.23
2022-12-06T07:25:46.184Z,13.15
2022-12-06T07:28:15.468Z,13.93
2022-12-06T07:30:43.534Z,16.98
2022-12-06T07:33:11.495Z,13.07
2022-12-06T07:36:10.945Z,13.55
2022-12-06T07:38:27.981Z,16.15
2022-12-06T07:41:04.373Z,16.58
2022-12-06T07:43:52.242Z,15.63
2022-12-06T07:46:20.353Z,14.40
2022-12-06T07:48:48.757Z,13.63
2022-12-06T07:51:16.824Z,15.70
2022-12-06T07:53:44.779Z,12.65
2022-12-06T07:56:12.819Z,14.48
2022-12-06T07:58:42.474Z,13.13
2022-12-06T08:01:10.642Z,17.30
2022-12-06T08:03:38.781Z,13.82
2022-12-06T08:06:08.162Z,13.82
2022-12-06T08:08:36.671Z,15.68
2022-12-06T08:11:07.630Z,13.23
2022-12-06T08:13:36.813Z,11.02
2022-12-06T08:16:09.039Z,10.32
2022-12-06T08:18:38.133Z,12.93
2022-12-06T08:21:09.015Z,10.15
2022-12-06T08:23:37.587Z,11.23
2022-12-06T08:26:07.878Z,10.25
2022-12-06T08:28:37.567Z,8.85
2022-12-06T08:31:09.685Z,10.63
2022-12-06T08:33:38.050Z,11.35
2022-12-06T08:36:09.482Z,10.70
2022-12-06T08:38:38.067Z,8.77
2022-12-06T08:41:27.007Z,8.60
2022-12-06T08:43:55.417Z,9.88
2022-12-06T08:46:25.045Z,7.93
2022-12-06T08:48:53.271Z,6.97
2022-12-06T08:51:21.675Z,7.65
2022-12-06T08:53:49.648Z,7.05
2022-12-06T08:56:17.725Z,6.82
2022-12-06T08:58:45.811Z,5.88
2022-12-06T09:01:14.934Z,7.90
2022-12-06T09:03:44.623Z,4.20
2022-12-06T09:06:13.200Z,6.80
2022-12-06T09:08:41.666Z,5.57
2022-12-06T09:11:10.515Z,4.03
2022-12-06T09:13:39.883Z,5.97
2022-12-06T09:16:12.811Z,4.60
2022-12-06T09:18:41.351Z,5.28
2022-12-06T09:21:13.335Z,4.25
2022-12-06T09:23:41.741Z,5.82
2022-12-06T09:26:10.792Z,5.15
2022-12-06T09:28:41.256Z,7.07
2022-12-06T09:31:11.280Z,5.43
2022-12-06T09:33:39.793Z,7.97
2022-12-06T09:36:14.505Z,7.32
2022-12-06T09:38:45.147Z,5.00
2022-12-06T09:41:31.265Z,7.25
2022-12-06T09:44:08.963Z,4.85
2022-12-06T09:46:52.912Z,4.35
2022-12-06T09:49:30.776Z,5.38
2022-12-06T09:52:26.736Z,3.42
2022-12-06T09:55:08.754Z,4.00
2022-12-06T09:57:41.348Z,6.43
2022-12-06T10:00:19.046Z,7.57
2022-12-06T10:03:14.925Z,10.68
2022-12-06T10:05:58.042Z,6.40
2022-12-06T10:08:48.195Z,5.38
2022-12-06T10:11:25.460Z,5.10
2022-12-06T10:14:06.101Z,3.65
2022-12-06T10:16:46.400Z,3.88
2022-12-06T10:19:24.656Z,6.22
2022-12-06T10:22:05.875Z,5.43
2022-12-06T10:24:49.683Z,4.80
2022-12-06T10:27:23.789Z,5.43
2022-12-06T10:29:58.946Z,6.25
2022-12-06T10:32:50.637Z,4.18
2022-12-06T10:35:23.131Z,5.93
2022-12-06T10:40:31.870Z,4.72
2022-12-06T10:43:02.709Z,7.03
2022-12-06T10:45:52.620Z,5.28
2022-12-06T10:48:26.810Z,6.07
2022-12-06T10:51:00.294Z,7.20
2022-12-06T10:53:32.920Z,14.85
2022-12-06T10:56:07.445Z,10.00
2022-12-06T10:58:42.248Z,16.10
2022-12-06T11:01:14.706Z,8.38
2022-12-06T11:06:16.807Z,6.28
2022-12-06T11:08:50.972Z,8.27
2022-12-06T11:11:27.917Z,13.05
2022-12-06T11:14:02.643Z,11.27
2022-12-06T11:16:37.650Z,13.23
2022-12-06T11:19:20.556Z,6.72
2022-12-06T11:21:54.874Z,9.57
2022-12-06T11:24:27.652Z,8.32
2022-12-06T11:27:04.636Z,6.70
2022-12-06T11:29:33.053Z,7.18
2022-12-06T11:32:03.802Z,7.72
2022-12-06T11:34:37.476Z,7.07
2022-12-06T11:37:07.182Z,6.50
2022-12-06T11:39:35.601Z,7.55
2022-12-06T11:42:08.244Z,7.70
2022-12-06T11:44:47.896Z,5.60
2022-12-06T11:47:20.321Z,5.40
2022-12-06T11:49:49.646Z,11.25
2022-12-06T11:52:22.658Z,30.83
2022-12-06T11:54:56.267Z,12.15
2022-12-06T11:57:29.269Z,11.07
2022-12-06T12:00:16.491Z,12.50
2022-12-06T12:02:46.752Z,13.30
2022-12-06T12:05:21.391Z,7.45
2022-12-06T12:07:53.110Z,6.05
2022-12-06T12:10:28.941Z,7.23
2022-12-06T12:13:22.702Z,5.30
2022-12-06T12:15:53.091Z,4.93
2022-12-06T12:18:24.888Z,6.53
2022-12-06T12:20:54.451Z,5.45
2022-12-06T12:23:28.230Z,7.93
2022-12-06T12:26:05.163Z,5.25
2022-12-06T12:28:38.396Z,8.10
2022-12-06T12:31:12.174Z,5.93
2022-12-06T12:33:40.140Z,7.75
2022-12-06T12:36:17.346Z,8.63
2022-12-06T12:38:54.693Z,8.25
2022-12-06T12:41:30.033Z,8.30
2022-12-06T12:44:28.917Z,7.22
2022-12-06T12:46:53.690Z,7.43
2022-12-06T12:49:29.382Z,6.30
2022-12-06T12:51:58.505Z,10.27
2022-12-06T12:54:30.383Z,7.85
2022-12-06T12:56:58.818Z,7.35
2022-12-06T12:59:34.151Z,7.65
2022-12-06T13:02:06.617Z,11.25
2022-12-06T13:04:42.367Z,10.40
2022-12-06T13:07:18.716Z,6.43
2022-12-06T13:09:58.255Z,8.98
2022-12-06T13:12:31.486Z,9.55
2022-12-06T13:15:05.871Z,8.77
2022-12-06T13:17:36.720Z,8.40
2022-12-06T13:20:17.784Z,8.75
2022-12-06T13:22:47.297Z,7.28
2022-12-06T13:25:15.248Z,6.88
2022-12-06T13:27:47.361Z,6.38
2022-12-06T13:30:21.058Z,9.02
2022-12-06T13:32:53.712Z,11.43
2022-12-06T13:37:54.842Z,5.68
2022-12-06T13:40:46.339Z,6.45
2022-12-06T13:43:58.820Z,7.82
2022-12-06T13:46:33.381Z,7.23
2022-12-06T13:49:26.688Z,5.88
2022-12-06T13:51:55.041Z,7.45
2022-12-06T13:54:40.896Z,5.95
2022-12-06T13:57:29.477Z,5.72
2022-12-06T13:59:58.300Z,5.57
2022-12-06T14:02:47.314Z,7.22
2022-12-06T14:08:20.476Z,5.18
2022-12-06T14:10:48.776Z,5.60
2022-12-06T14:13:19.381Z,6.43
2022-12-06T14:15:50.263Z,4.72
2022-12-06T14:18:29.943Z,4.80
2022-12-06T14:21:02.853Z,5.40
2022-12-06T14:23:43.278Z,5.60
2022-12-06T14:26:23.132Z,5.18
2022-12-06T14:29:03.257Z,7.75
2022-12-06T14:32:14.789Z,6.80
2022-12-06T14:34:50.851Z,7.63
2022-12-06T14:37:23.450Z,15.35
2022-12-06T14:42:38.935Z,5.60
2022-12-06T14:45:15.312Z,3.80
2022-12-06T14:47:45.236Z,8.00
2022-12-06T14:50:30.644Z,7.68
2022-12-06T14:53:02.889Z,8.02
2022-12-06T14:55:33.791Z,8.48
2022-12-06T14:58:05.044Z,12.63
2022-12-06T15:00:37.382Z,7.07
2022-12-06T15:03:29.063Z,6.93
2022-12-06T15:06:20.592Z,6.47
2022-12-06T15:08:55.122Z,5.40
2022-12-06T15:11:50.492Z,5.57
2022-12-06T15:14:21.999Z,5.97
2022-12-06T15:17:02.082Z,5.03
2022-12-06T15:19:32.733Z,4.97
2022-12-06T15:22:03.377Z,4.93
2022-12-06T15:24:32.180Z,6.28
2022-12-06T15:27:00.087Z,5.90
2022-12-06T15:29:28.051Z,4.40
2022-12-06T15:31:56.493Z,6.40
2022-12-06T15:34:27.993Z,6.40
2022-12-06T15:37:15.561Z,8.63
2022-12-06T15:39:46.825Z,11.00
2022-12-06T15:42:19.525Z,10.73
2022-12-06T15:44:49.833Z,8.93
2022-12-06T15:47:19.482Z,9.35
2022-12-06T15:49:48.957Z,11.32
2022-12-06T15:52:18.318Z,9.27
2022-12-06T15:54:48.752Z,6.88
2022-12-06T15:57:17.150Z,8.82
2022-12-06T15:59:45.150Z,8.50
2022-12-06T16:02:18.289Z,9.32
2022-12-06T16:04:48.274Z,13.05
2022-12-06T16:07:18.879Z,20.08
2022-12-06T16:09:49.216Z,21.20
2022-12-06T16:12:17.474Z,11.32
2022-12-06T16:14:45.534Z,10.98
2022-12-06T16:17:13.558Z,7.30
2022-12-06T16:19:59.543Z,8.63
2022-12-06T16:22:41.405Z,10.93
2022-12-06T16:25:11.065Z,13.17
2022-12-06T16:27:39.253Z,10.18
2022-12-06T16:30:08.469Z,9.57
2022-12-06T16:32:36.690Z,10.45
2022-12-06T16:35:05.010Z,8.90
2022-12-06T16:37:33.404Z,10.80
2022-12-06T16:40:01.391Z,9.38
2022-12-06T16:42:31.128Z,8.57
2022-12-06T16:44:59.650Z,9.25
2022-12-06T16:49:54.808Z,7.00
2022-12-06T16:52:22.850Z,7.88
2022-12-06T16:54:50.943Z,12.77
2022-12-06T16:57:19.577Z,8.90
2022-12-06T16:59:49.615Z,9.20
2022-12-06T17:02:27.420Z,6.85
2022-12-06T17:04:55.707Z,12.13
2022-12-06T17:07:23.885Z,9.35
2022-12-06T17:09:51.844Z,9.10
2022-12-06T17:12:20.150Z,12.10
2022-12-06T17:14:49.506Z,20.38
2022-12-06T17:17:20.124Z,38.15
2022-12-06T17:19:48.708Z,15.80
2022-12-06T17:22:17.316Z,15.65
2022-12-06T17:24:45.665Z,35.65
2022-12-06T17:27:15.261Z,28.38
2022-12-06T17:29:44.308Z,16.90
2022-12-06T17:32:14.052Z,12.88
2022-12-06T17:34:42.022Z,15.25
2022-12-06T17:37:10.230Z,13.00
2022-12-06T17:39:38.468Z,12.13
2022-12-06T17:42:24.291Z,12.32
2022-12-06T17:44:52.273Z,15.82
2022-12-06T17:47:21.900Z,10.20
2022-12-06T17:49:49.868Z,10.88
2022-12-06T17:52:18.349Z,11.10
2022-12-06T17:54:46.273Z,11.38
2022-12-06T17:57:17.945Z,11.10
2022-12-06T17:59:47.198Z,11.00
2022-12-06T18:02:19.105Z,12.07
2022-12-06T18:04:49.177Z,9.60
2022-12-06T18:07:18.219Z,12.07
2022-12-06T18:09:46.499Z,14.05
2022-12-06T18:12:16.124Z,10.57
2022-12-06T18:14:44.287Z,11.35
2022-12-06T18:17:12.607Z,12.45
2022-12-06T18:19:41.429Z,11.50
2022-12-06T18:22:10.770Z,11.38
2022-12-06T18:24:38.773Z,10.77
2022-12-06T18:27:07.490Z,9.73
2022-12-06T18:29:35.779Z,10.70
2022-12-06T18:32:04.123Z,12.18
2022-12-06T18:34:32.577Z,13.88
2022-12-06T18:37:00.594Z,10.63
2022-12-06T18:39:30.359Z,17.75
2022-12-06T18:41:58.408Z,18.00
2022-12-06T18:44:26.595Z,13.13
2022-12-06T18:46:54.527Z,16.13
2022-12-06T18:49:22.469Z,13.88
2022-12-06T18:51:50.825Z,12.32
2022-12-06T18:54:18.805Z,13.60
2022-12-06T18:56:48.463Z,11.25
2022-12-06T18:59:16.616Z,10.35
2022-12-06T19:01:44.606Z,10.85
2022-12-06T19:04:14.823Z,16.35
2022-12-06T19:06:44.837Z,15.93
2022-12-06T19:09:15.165Z,14.93
2022-12-06T19:11:44.401Z,23.88
2022-12-06T19:14:14.840Z,53.75
2022-12-06T19:16:44.209Z,66.95
2022-12-06T19:19:16.662Z,55.17
2022-12-06T19:21:45.717Z,24.05
2022-12-06T19:24:16.143Z,19.75
2022-12-06T19:26:44.868Z,21.80
2022-12-06T19:29:16.629Z,18.17
2022-12-06T19:31:45.314Z,15.77
2022-12-06T19:34:18.173Z,16.13
2022-12-06T19:36:47.263Z,14.00
2022-12-06T19:39:15.665Z,24.33
2022-12-06T19:42:01.116Z,28.60
2022-12-06T19:44:31.402Z,25.50
2022-12-06T19:47:00.020Z,14.35
2022-12-06T19:49:28.471Z,17.52
2022-12-06T19:51:56.728Z,15.75
2022-12-06T19:54:26.508Z,16.58
2022-12-06T19:56:57.882Z,15.32
2022-12-06T19:59:28.182Z,16.38
2022-12-06T20:01:58.968Z,17.50
2022-12-06T20:04:28.921Z,15.27
2022-12-06T20:06:57.693Z,17.73
2022-12-06T20:09:28.179Z,18.42
2022-12-06T20:12:04.099Z,17.65
2022-12-06T20:14:37.489Z,16.88
2022-12-06T20:17:08.577Z,17.80
2022-12-06T20:19:37.449Z,13.77
2022-12-06T20:22:05.535Z,17.52
2022-12-06T20:24:33.528Z,15.20
2022-12-06T20:27:01.455Z,19.85
2022-12-06T20:29:32.718Z,18.50
2022-12-06T20:32:01.664Z,19.85
2022-12-06T20:34:34.169Z,17.48
2022-12-06T20:37:04.141Z,15.70
2022-12-06T20:39:35.173Z,15.85
2022-12-06T20:42:05.593Z,17.45
2022-12-06T20:44:33.863Z,15.85
2022-12-06T20:47:02.102Z,19.48
2022-12-06T20:49:31.514Z,20.88
2022-12-06T20:52:02.321Z,18.55
2022-12-06T20:54:30.300Z,17.42
2022-12-06T20:56:58.387Z,17.60
2022-12-06T20:59:26.726Z,16.08
2022-12-06T21:01:54.918Z,13.02
2022-12-06T21:04:23.203Z,14.60
2022-12-06T21:06:52.560Z,18.58
2022-12-06T21:09:20.743Z,17.42
2022-12-06T21:11:48.765Z,16.20
2022-12-06T21:14:18.029Z,11.45
2022-12-06T21:16:46.086Z,15.23
2022-12-06T21:19:16.830Z,20.95
2022-12-06T21:21:47.342Z,16.70
2022-12-06T21:24:18.845Z,19.52
2022-12-06T21:26:47.316Z,22.55
2022-12-06T21:29:16.866Z,22.55
2022-12-06T21:31:45.766Z,18.80
2022-12-06T21:34:14.731Z,15.52
2022-12-06T21:36:45.409Z,16.45
2022-12-06T21:39:15.217Z,15.63
2022-12-06T21:41:45.793Z,18.35
2022-12-06T21:44:14.305Z,16.67
2022-12-06T21:46:42.455Z,15.73
2022-12-06T21:49:12.891Z,18.60
2022-12-06T21:51:41.143Z,14.90
2022-12-06T21:54:09.286Z,15.40
2022-12-06T21:56:38.196Z,15.27
2022-12-06T21:59:07.443Z,15.68
2022-12-06T22:01:35.406Z,15.30
2022-12-06T22:04:04.567Z,17.33
2022-12-06T22:06:33.533Z,14.93
2022-12-06T22:09:03.608Z,13.30
2022-12-06T22:11:32.443Z,14.57
2022-12-06T22:14:01.816Z,12.50
2022-12-06T22:16:31.605Z,20.10
2022-12-06T22:18:59.581Z,15.25
2022-12-06T22:21:28.996Z,13.77
2022-12-06T22:23:58.092Z,14.38
2022-12-06T22:26:28.129Z,15.40
2022-12-06T22:28:56.753Z,13.50
2022-12-06T22:31:26.448Z,14.30
2022-12-06T22:33:57.018Z,15.70
2022-12-06T22:36:25.765Z,14.38
2022-12-06T22:38:55.456Z,15.82
2022-12-06T22:41:24.177Z,15.77
2022-12-06T22:43:53.777Z,13.88
2022-12-06T22:46:22.276Z,17.98
2022-12-06T22:48:51.002Z,15.40
2022-12-06T22:51:22.346Z,15.07
2022-12-06T22:53:53.780Z,14.95
2022-12-06T22:56:21.950Z,15.07
2022-12-06T22:58:50.072Z,14.75
2022-12-06T23:01:19.941Z,14.30
2022-12-06T23:03:49.949Z,12.80
2022-12-06T23:06:21.806Z,14.88
2022-12-06T23:08:50.010Z,15.27
2022-12-06T23:11:19.944Z,14.20
2022-12-06T23:13:48.059Z,16.33
2022-12-06T23:16:18.866Z,17.52
2022-12-06T23:18:47.809Z,16.85
2022-12-06T23:21:18.101Z,16.90
2022-12-06T23:23:49.194Z,18.27
2022-12-06T23:26:19.905Z,17.13
2022-12-06T23:28:48.632Z,15.18
2022-12-06T23:31:18.657Z,18.30
2022-12-06T23:33:47.430Z,19.23
2022-12-06T23:36:17.875Z,18.67
2022-12-06T23:38:47.796Z,16.67
2022-12-06T23:41:17.569Z,17.98
2022-12-06T23:43:59.798Z,18.10
2022-12-06T23:46:30.421Z,22.92
2022-12-06T23:48:59.562Z,18.20
2022-12-06T23:51:30.725Z,17.80
2022-12-06T23:54:01.457Z,21.45
2022-12-06T23:56:31.609Z,16.70
2022-12-06T23:58:59.888Z,20.52
